createdAt,value
2022-11-22T00:00:55.078Z,263.00
2022-11-22T00:03:21.909Z,213.40
2022-11-22T00:05:48.306Z,199.90
2022-11-22T00:08:14.781Z,195.90
2022-11-22T00:10:41.222Z,205.60
2022-11-22T00:13:07.960Z,223.70
2022-11-22T00:15:34.434Z,221.40
2022-11-22T00:18:01.120Z,204.40
2022-11-22T00:20:27.779Z,215.40
2022-11-22T00:22:56.353Z,203.40
2022-11-22T00:25:22.904Z,252.70
2022-11-22T00:27:49.338Z,287.50
2022-11-22T00:30:16.286Z,275.40
2022-11-22T00:32:42.824Z,230.90
2022-11-22T00:35:10.908Z,229.80
2022-11-22T00:37:37.746Z,213.40
2022-11-22T00:40:06.256Z,227.90
2022-11-22T00:42:32.844Z,217.50
2022-11-22T00:44:59.274Z,237.50
2022-11-22T00:47:25.737Z,224.50
2022-11-22T00:49:52.342Z,206.60
2022-11-22T00:52:18.742Z,218.50
2022-11-22T00:54:48.767Z,188.00
2022-11-22T00:57:17.985Z,178.60
2022-11-22T00:59:44.680Z,210.70
2022-11-22T01:02:11.323Z,214.50
2022-11-22T01:04:37.857Z,225.50
2022-11-22T01:07:04.335Z,211.70
2022-11-22T01:09:31.352Z,215.00
2022-11-22T01:11:58.326Z,201.20
2022-11-22T01:14:24.778Z,213.60
2022-11-22T01:16:51.266Z,197.10
2022-11-22T01:19:17.792Z,210.30
2022-11-22T01:21:44.335Z,218.50
2022-11-22T01:24:10.785Z,205.10
2022-11-22T01:26:37.306Z,195.40
2022-11-22T01:29:04.801Z,194.50
2022-11-22T01:31:31.327Z,190.10
2022-11-22T01:33:58.963Z,185.70
2022-11-22T01:36:26.651Z,175.40
2022-11-22T01:38:53.077Z,177.80
2022-11-22T01:41:19.839Z,170.90
2022-11-22T01:43:46.281Z,180.20
2022-11-22T01:46:26.072Z,171.50
2022-11-22T01:48:55.330Z,185.90
2022-11-22T01:51:32.602Z,183.60
2022-11-22T01:54:03.008Z,171.70
2022-11-22T01:56:30.703Z,173.60
2022-11-22T01:59:02.902Z,165.30
2022-11-22T02:01:30.260Z,219.80
2022-11-22T02:04:00.563Z,219.20
2022-11-22T02:06:58.018Z,256.80
2022-11-22T02:09:24.873Z,230.70
2022-11-22T02:11:54.577Z,227.40
2022-11-22T02:14:27.382Z,213.30
2022-11-22T02:16:54.509Z,217.90
2022-11-22T02:19:39.422Z,250.90
2022-11-22T02:22:46.147Z,379.40
2022-11-22T02:25:27.972Z,266.70
2022-11-22T02:27:54.463Z,282.30
2022-11-22T02:30:21.001Z,291.00
2022-11-22T02:32:47.885Z,269.40
2022-11-22T02:35:25.974Z,360.80
2022-11-22T02:37:58.984Z,310.00
2022-11-22T02:40:27.661Z,331.70
2022-11-22T02:43:04.583Z,365.00
2022-11-22T02:45:31.202Z,367.10
2022-11-22T02:48:06.339Z,462.30
2022-11-22T02:50:32.776Z,373.80
2022-11-22T02:52:59.218Z,388.10
2022-11-22T02:55:25.762Z,368.00
2022-11-22T02:57:52.190Z,360.80
2022-11-22T03:00:19.211Z,330.90
2022-11-22T03:02:45.679Z,283.50
2022-11-22T03:05:12.232Z,239.20
2022-11-22T03:07:38.704Z,213.00
2022-11-22T03:10:05.917Z,189.70
2022-11-22T03:12:32.423Z,166.00
2022-11-22T03:14:58.810Z,212.30
2022-11-22T03:17:25.265Z,225.50
2022-11-22T03:19:51.769Z,234.90
2022-11-22T03:22:18.215Z,224.60
2022-11-22T03:24:44.717Z,267.40
2022-11-22T03:27:11.182Z,307.20
2022-11-22T03:29:37.718Z,399.20
2022-11-22T03:32:04.151Z,459.50
2022-11-22T03:34:30.521Z,368.60
2022-11-22T03:36:56.959Z,313.10
2022-11-22T03:39:24.091Z,383.60
2022-11-22T03:41:50.521Z,304.00
2022-11-22T03:44:17.056Z,546.60
2022-11-22T03:46:43.592Z,382.20
2022-11-22T03:49:11.057Z,509.20
2022-11-22T03:51:37.591Z,573.10
2022-11-22T03:54:04.228Z,361.30
2022-11-22T03:56:30.866Z,564.30
2022-11-22T03:58:57.296Z,564.00
2022-11-22T04:01:23.920Z,604.80
2022-11-22T04:03:50.583Z,597.40
2022-11-22T04:06:17.015Z,393.50
2022-11-22T04:08:43.638Z,483.90
2022-11-22T04:11:10.156Z,470.70
2022-11-22T04:13:36.578Z,522.80
2022-11-22T04:16:03.036Z,267.80
2022-11-22T04:18:29.495Z,334.50
2022-11-22T04:20:55.936Z,364.70
2022-11-22T04:23:26.221Z,352.80
2022-11-22T04:25:56.282Z,247.80
2022-11-22T04:28:35.213Z,316.20
2022-11-22T04:31:11.477Z,224.60
2022-11-22T04:33:38.013Z,229.50
2022-11-22T04:36:07.732Z,249.80
2022-11-22T04:38:38.437Z,242.40
2022-11-22T04:41:04.892Z,320.70
2022-11-22T04:43:31.326Z,261.10
2022-11-22T04:45:57.867Z,237.70
2022-11-22T04:48:24.294Z,404.30
2022-11-22T04:50:50.853Z,245.10
2022-11-22T04:53:18.710Z,212.00
2022-11-22T04:55:47.164Z,410.20
2022-11-22T04:58:13.934Z,339.40
2022-11-22T05:00:40.614Z,378.20
2022-11-22T05:03:08.030Z,369.50
2022-11-22T05:05:36.717Z,462.80
2022-11-22T05:08:03.928Z,509.30
2022-11-22T05:10:30.419Z,639.00
2022-11-22T05:12:56.961Z,571.10
2022-11-22T05:15:23.418Z,417.80
2022-11-22T05:17:49.843Z,591.20
2022-11-22T05:20:16.470Z,484.10
2022-11-22T05:22:43.009Z,490.00
2022-11-22T05:25:09.852Z,490.10
2022-11-22T05:27:36.592Z,468.00
2022-11-22T05:30:04.199Z,509.40
2022-11-22T05:32:31.919Z,503.50
2022-11-22T05:34:58.855Z,446.20
2022-11-22T05:37:26.213Z,459.70
2022-11-22T05:39:52.776Z,350.20
2022-11-22T05:42:19.320Z,348.30
2022-11-22T05:44:45.924Z,200.80
2022-11-22T05:47:12.881Z,226.60
2022-11-22T05:49:39.291Z,263.10
2022-11-22T05:52:05.955Z,186.60
2022-11-22T05:54:32.424Z,239.40
2022-11-22T05:56:58.968Z,222.10
2022-11-22T05:59:25.370Z,245.10
2022-11-22T06:01:51.993Z,208.30
2022-11-22T06:04:18.690Z,261.00
2022-11-22T06:06:47.114Z,401.10
2022-11-22T06:09:13.631Z,308.70
2022-11-22T06:11:40.026Z,284.50
2022-11-22T06:14:09.256Z,292.10
2022-11-22T06:16:36.004Z,276.70
2022-11-22T06:19:02.405Z,246.50
2022-11-22T06:21:28.875Z,205.50
2022-11-22T06:23:56.019Z,272.80
2022-11-22T06:26:23.921Z,236.90
2022-11-22T06:28:51.489Z,249.20
2022-11-22T06:31:20.777Z,292.20
2022-11-22T06:33:47.432Z,297.80
2022-11-22T06:36:20.069Z,263.40
2022-11-22T06:38:47.153Z,335.60
2022-11-22T06:41:16.530Z,249.40
2022-11-22T06:43:48.752Z,244.40
2022-11-22T06:46:18.297Z,181.80
2022-11-22T06:48:45.587Z,195.50
2022-11-22T06:51:17.060Z,157.20
2022-11-22T06:53:47.816Z,192.00
2022-11-22T06:56:18.031Z,138.90
2022-11-22T06:58:45.392Z,175.90
2022-11-22T07:01:24.671Z,144.90
2022-11-22T07:03:52.091Z,158.80
2022-11-22T07:06:19.367Z,160.50
2022-11-22T07:08:46.696Z,132.40
2022-11-22T07:11:16.600Z,136.90
2022-11-22T07:13:43.364Z,170.10
2022-11-22T07:16:12.303Z,185.30
2022-11-22T07:18:39.086Z,155.60
2022-11-22T07:21:13.511Z,177.00
2022-11-22T07:23:42.778Z,201.90
2022-11-22T07:26:10.202Z,194.70
2022-11-22T07:28:37.539Z,182.30
2022-11-22T07:31:06.656Z,201.10
2022-11-22T07:33:33.893Z,160.70
2022-11-22T07:36:10.283Z,167.30
2022-11-22T07:38:37.684Z,131.10
2022-11-22T07:41:05.614Z,116.90
2022-11-22T07:43:32.650Z,141.90
2022-11-22T07:46:04.191Z,111.50
2022-11-22T07:50:57.312Z,124.70
2022-11-22T07:53:23.786Z,126.70
2022-11-22T07:55:50.196Z,179.90
2022-11-22T07:58:16.731Z,180.70
2022-11-22T08:00:43.141Z,160.10
2022-11-22T08:03:09.714Z,139.00
2022-11-22T08:05:36.157Z,142.40
2022-11-22T08:08:02.698Z,118.90
2022-11-22T08:10:29.130Z,126.10
2022-11-22T08:12:59.514Z,129.70
2022-11-22T08:15:26.819Z,148.40
2022-11-22T08:17:53.475Z,116.70
2022-11-22T08:20:20.003Z,136.70
2022-11-22T08:22:46.443Z,137.10
2022-11-22T08:25:12.865Z,152.20
2022-11-22T08:27:43.953Z,114.50
2022-11-22T08:30:11.487Z,104.50
2022-11-22T08:32:38.559Z,102.40
2022-11-22T08:35:05.915Z,82.20
2022-11-22T08:37:32.664Z,64.60
2022-11-22T08:39:59.167Z,59.10
2022-11-22T08:42:25.852Z,67.00
2022-11-22T08:44:52.296Z,60.00
2022-11-22T08:47:18.831Z,56.70
2022-11-22T08:49:45.374Z,57.80
2022-11-22T08:52:11.763Z,55.50
2022-11-22T08:54:38.658Z,51.70
2022-11-22T08:57:05.713Z,48.10
2022-11-22T08:59:32.973Z,46.90
2022-11-22T09:01:59.987Z,44.20
2022-11-22T09:04:26.578Z,49.90
2022-11-22T09:09:39.759Z,49.20
2022-11-22T09:12:09.050Z,46.60
2022-11-22T09:14:35.668Z,45.30
2022-11-22T09:17:02.078Z,50.00
2022-11-22T09:19:28.660Z,46.50
2022-11-22T09:21:55.475Z,43.10
2022-11-22T09:24:22.039Z,46.60
2022-11-22T09:26:48.683Z,43.60
2022-11-22T09:29:15.121Z,44.40
2022-11-22T09:31:41.606Z,43.60
2022-11-22T09:34:08.095Z,39.30
2022-11-22T09:36:38.220Z,31.90
2022-11-22T09:39:04.761Z,27.70
2022-11-22T09:41:49.223Z,31.70
2022-11-22T09:44:36.347Z,103.40
2022-11-22T09:47:29.346Z,31.80
2022-11-22T09:50:18.683Z,27.90
2022-11-22T09:52:59.261Z,29.00
2022-11-22T09:55:28.654Z,27.20
2022-11-22T09:58:10.023Z,25.20
2022-11-22T10:03:33.646Z,23.40
2022-11-22T10:06:05.240Z,21.80
2022-11-22T10:08:44.148Z,22.60
2022-11-22T10:11:26.046Z,20.00
2022-11-22T10:13:57.782Z,18.90
2022-11-22T10:16:44.106Z,16.00
2022-11-22T10:19:16.376Z,15.90
2022-11-22T10:21:45.502Z,18.30
2022-11-22T10:24:15.888Z,16.10
2022-11-22T10:26:42.998Z,16.70
2022-11-22T10:29:28.813Z,15.70
2022-11-22T10:32:25.828Z,14.70
2022-11-22T10:35:16.127Z,16.20
2022-11-22T10:38:01.075Z,16.60
2022-11-22T10:40:48.228Z,27.00
2022-11-22T10:43:24.034Z,23.50
2022-11-22T10:46:01.996Z,20.90
2022-11-22T10:48:40.945Z,18.50
2022-11-22T10:51:20.703Z,18.60
2022-11-22T10:54:04.065Z,20.00
2022-11-22T10:56:38.033Z,17.20
2022-11-22T10:59:14.773Z,25.60
2022-11-22T11:02:15.474Z,17.00
2022-11-22T11:04:43.236Z,16.00
2022-11-22T11:07:16.991Z,14.20
2022-11-22T11:10:11.547Z,12.40
2022-11-22T11:13:06.033Z,8.20
2022-11-22T11:15:42.402Z,6.70
2022-11-22T11:18:17.067Z,7.00
2022-11-22T11:20:43.699Z,6.60
2022-11-22T11:23:15.161Z,10.80
2022-11-22T11:25:44.767Z,6.20
2022-11-22T11:28:22.992Z,7.70
2022-11-22T11:31:09.381Z,7.70
2022-11-22T11:33:38.491Z,9.80
2022-11-22T11:36:10.853Z,8.50
2022-11-22T11:38:43.126Z,10.70
2022-11-22T11:41:23.285Z,9.90
2022-11-22T11:43:51.678Z,7.90
2022-11-22T11:46:23.779Z,7.90
2022-11-22T11:48:52.391Z,8.80
2022-11-22T11:51:35.822Z,8.60
2022-11-22T11:54:24.261Z,5.90
2022-11-22T11:56:57.938Z,8.50
2022-11-22T11:59:31.575Z,7.60
2022-11-22T12:02:11.896Z,6.80
2022-11-22T12:04:51.478Z,4.90
2022-11-22T12:07:48.973Z,6.60
2022-11-22T12:10:34.548Z,6.90
2022-11-22T12:13:12.921Z,8.50
2022-11-22T12:15:50.407Z,7.60
2022-11-22T12:18:44.113Z,6.90
2022-11-22T12:21:35.520Z,7.00
2022-11-22T12:24:41.332Z,5.90
2022-11-22T12:26:57.687Z,14.20
2022-11-22T12:29:24.636Z,7.70
2022-11-22T12:32:04.874Z,7.00
2022-11-22T12:35:03.182Z,16.70
2022-11-22T12:37:42.021Z,11.40
2022-11-22T12:40:19.953Z,5.50
2022-11-22T12:42:46.405Z,26.00
2022-11-22T12:45:23.046Z,19.70
2022-11-22T12:47:52.218Z,19.70
2022-11-22T12:50:27.801Z,9.90
2022-11-22T12:53:05.092Z,7.30
2022-11-22T12:55:51.199Z,5.80
2022-11-22T12:58:45.301Z,6.00
2022-11-22T13:01:34.829Z,7.40
2022-11-22T13:04:15.939Z,6.00
2022-11-22T13:06:51.592Z,6.10
2022-11-22T13:09:34.721Z,8.90
2022-11-22T13:12:04.620Z,6.90
2022-11-22T13:14:39.258Z,6.10
2022-11-22T13:17:12.068Z,7.00
2022-11-22T13:19:47.269Z,7.00
2022-11-22T13:22:25.841Z,5.50
2022-11-22T13:25:11.109Z,5.80
2022-11-22T13:27:45.048Z,6.10
2022-11-22T13:30:19.451Z,6.60
2022-11-22T13:32:50.862Z,9.40
2022-11-22T13:35:23.916Z,6.10
2022-11-22T13:37:54.423Z,6.00
2022-11-22T13:40:43.836Z,9.30
2022-11-22T13:43:21.959Z,9.40
2022-11-22T13:45:59.313Z,10.30
2022-11-22T13:48:41.031Z,9.00
2022-11-22T13:51:16.050Z,12.50
2022-11-22T13:53:44.434Z,11.20
2022-11-22T13:56:17.127Z,10.80
2022-11-22T13:58:54.128Z,7.10
2022-11-22T14:01:51.437Z,17.50
2022-11-22T14:04:17.835Z,13.50
2022-11-22T14:06:49.267Z,12.70
2022-11-22T14:12:03.123Z,14.40
2022-11-22T14:14:47.864Z,12.70
2022-11-22T14:17:42.374Z,10.90
2022-11-22T14:20:27.260Z,14.30
2022-11-22T14:23:38.138Z,13.20
2022-11-22T14:26:44.855Z,14.50
2022-11-22T14:29:33.357Z,16.50
2022-11-22T14:32:13.749Z,13.40
2022-11-22T14:35:05.297Z,14.40
2022-11-22T14:37:31.829Z,17.80
2022-11-22T14:40:07.468Z,21.10
2022-11-22T14:42:36.766Z,14.10
2022-11-22T14:45:09.348Z,18.70
2022-11-22T14:47:41.934Z,16.90
2022-11-22T14:50:37.550Z,19.30
2022-11-22T14:53:44.025Z,22.80
2022-11-22T14:56:22.838Z,20.10
2022-11-22T14:59:02.908Z,20.30
2022-11-22T15:01:57.056Z,23.70
2022-11-22T15:09:11.957Z,22.70
2022-11-22T15:09:17.239Z,34.40
2022-11-22T15:10:58.151Z,40.70
2022-11-22T15:14:08.955Z,52.40
2022-11-22T15:59:43.074Z,104.10
2022-11-22T16:02:21.365Z,96.70
2022-11-22T16:06:06.046Z,79.50
2022-11-22T16:07:41.094Z,73.90
2022-11-22T16:10:24.504Z,77.50
2022-11-22T16:12:52.430Z,86.40
2022-11-22T16:15:30.094Z,84.30
2022-11-22T16:18:01.839Z,93.00
2022-11-22T16:20:31.468Z,94.90
2022-11-22T16:23:12.983Z,93.50
2022-11-22T16:25:48.697Z,95.40
2022-11-22T16:28:29.261Z,101.80
2022-11-22T16:30:58.167Z,120.80
2022-11-22T16:33:24.991Z,119.30
2022-11-22T16:35:56.353Z,112.70
2022-11-22T16:38:24.020Z,135.90
2022-11-22T16:40:52.094Z,127.00
2022-11-22T16:43:21.604Z,143.20
2022-11-22T16:45:48.958Z,135.90
2022-11-22T16:48:31.821Z,126.10
2022-11-22T16:51:05.051Z,147.30
2022-11-22T16:53:44.537Z,106.30
2022-11-22T16:56:26.131Z,118.10
2022-11-22T17:01:24.762Z,165.60
2022-11-22T17:03:55.385Z,115.00
2022-11-22T17:06:24.446Z,112.90
2022-11-22T17:08:52.806Z,111.90
2022-11-22T17:11:22.167Z,135.40
2022-11-22T17:13:49.003Z,120.70
2022-11-22T17:16:16.159Z,126.70
2022-11-22T17:18:42.709Z,106.40
2022-11-22T17:21:30.211Z,104.90
2022-11-22T17:24:02.192Z,134.60
2022-11-22T17:26:29.446Z,125.70
2022-11-22T17:28:56.089Z,113.50
2022-11-22T17:31:22.890Z,109.50
2022-11-22T17:33:54.827Z,104.90
2022-11-22T17:36:35.677Z,114.00
2022-11-22T17:39:07.935Z,145.60
2022-11-22T17:41:34.602Z,192.10
2022-11-22T17:44:02.157Z,173.60
2022-11-22T17:46:29.714Z,228.30
2022-11-22T17:49:01.462Z,232.50
2022-11-22T17:51:29.663Z,170.00
2022-11-22T17:53:56.817Z,166.80
2022-11-22T17:56:23.255Z,132.20
2022-11-22T17:58:50.196Z,126.20
2022-11-22T18:01:21.816Z,130.50
2022-11-22T18:03:49.000Z,159.40
2022-11-22T18:06:16.695Z,136.50
2022-11-22T18:08:46.850Z,191.50
2022-11-22T18:11:14.563Z,182.40
2022-11-22T18:13:41.536Z,164.50
2022-11-22T18:16:10.949Z,166.70
2022-11-22T18:18:56.109Z,195.70
2022-11-22T18:21:23.563Z,172.60
2022-11-22T18:23:50.800Z,207.60
2022-11-22T18:26:38.336Z,207.80
2022-11-22T18:31:52.979Z,148.30
2022-11-22T18:34:20.450Z,243.80
2022-11-22T18:37:04.294Z,308.50
2022-11-22T18:39:35.059Z,222.30
2022-11-22T18:42:02.754Z,193.50
2022-11-22T18:44:29.392Z,196.20
2022-11-22T18:46:55.878Z,171.70
2022-11-22T18:49:22.663Z,162.10
2022-11-22T18:51:49.157Z,141.10
2022-11-22T18:54:15.679Z,132.50
2022-11-22T18:56:42.199Z,142.10
2022-11-22T18:59:11.199Z,191.30
2022-11-22T19:01:37.829Z,181.30
2022-11-22T19:04:05.143Z,188.70
2022-11-22T19:06:31.643Z,221.70
2022-11-22T19:08:58.490Z,221.60
2022-11-22T19:11:25.967Z,191.80
2022-11-22T19:13:52.386Z,167.70
2022-11-22T19:16:21.470Z,194.30
2022-11-22T19:18:48.927Z,160.50
2022-11-22T19:21:18.171Z,194.10
2022-11-22T19:23:45.595Z,151.50
2022-11-22T19:26:15.098Z,141.90
2022-11-22T19:28:42.565Z,156.70
2022-11-22T19:31:18.113Z,155.70
2022-11-22T19:33:45.680Z,149.10
2022-11-22T19:36:33.767Z,167.20
2022-11-22T19:39:03.127Z,171.00
2022-11-22T19:41:29.827Z,172.00
2022-11-22T19:43:58.368Z,161.50
2022-11-22T19:46:25.660Z,146.90
2022-11-22T19:48:53.512Z,158.40
2022-11-22T19:51:20.324Z,151.40
2022-11-22T19:54:31.422Z,204.80
2022-11-22T19:56:58.012Z,159.80
2022-11-22T19:59:24.612Z,207.30
2022-11-22T20:01:51.025Z,245.00
2022-11-22T20:04:17.456Z,201.30
2022-11-22T20:06:48.642Z,161.00
2022-11-22T20:09:16.599Z,152.80
2022-11-22T20:11:43.025Z,165.50
2022-11-22T20:14:09.644Z,203.70
2022-11-22T20:16:37.856Z,192.30
2022-11-22T20:19:05.826Z,215.50
2022-11-22T20:21:34.109Z,157.80
2022-11-22T20:24:01.161Z,144.60
2022-11-22T20:26:28.929Z,181.10
2022-11-22T20:29:06.415Z,159.30
2022-11-22T20:31:35.202Z,162.60
2022-11-22T20:34:02.463Z,180.50
2022-11-22T20:36:32.036Z,143.00
2022-11-22T20:38:59.241Z,204.50
2022-11-22T20:41:28.409Z,156.70
2022-11-22T20:43:54.910Z,147.70
2022-11-22T20:46:23.982Z,179.20
2022-11-22T20:48:51.439Z,145.50
2022-11-22T20:51:21.856Z,157.50
2022-11-22T20:53:48.665Z,151.60
2022-11-22T20:56:15.677Z,137.50
2022-11-22T20:58:43.239Z,143.90
2022-11-22T21:01:14.583Z,164.50
2022-11-22T21:03:41.204Z,144.50
2022-11-22T21:06:07.986Z,149.20
2022-11-22T21:08:34.499Z,122.60
2022-11-22T21:11:06.155Z,142.30
2022-11-22T21:13:33.411Z,130.30
2022-11-22T21:16:15.622Z,131.80
2022-11-22T21:18:54.272Z,127.30
2022-11-22T21:21:22.526Z,141.70
2022-11-22T21:23:56.703Z,128.00
2022-11-22T21:26:24.459Z,138.50
2022-11-22T21:28:51.581Z,138.30
2022-11-22T21:31:19.151Z,120.70
2022-11-22T21:33:45.946Z,125.10
2022-11-22T21:36:13.443Z,128.50
2022-11-22T21:38:40.081Z,129.60
2022-11-22T21:41:38.155Z,120.60
2022-11-22T21:43:58.541Z,131.20
2022-11-22T21:46:25.001Z,130.30
2022-11-22T21:48:51.524Z,131.10
2022-11-22T21:51:18.065Z,129.90
2022-11-22T21:53:44.525Z,128.30
2022-11-22T21:56:11.253Z,138.00
2022-11-22T21:58:37.790Z,133.40
2022-11-22T22:01:08.267Z,132.90
2022-11-22T22:03:37.513Z,141.70
2022-11-22T22:06:04.053Z,134.20
2022-11-22T22:08:30.511Z,144.00
2022-11-22T22:10:57.249Z,159.60
2022-11-22T22:13:23.860Z,150.10
2022-11-22T22:15:55.552Z,127.70
2022-11-22T22:18:22.093Z,136.60
2022-11-22T22:20:57.642Z,142.30
2022-11-22T22:23:24.066Z,139.10
2022-11-22T22:25:50.668Z,127.70
2022-11-22T22:28:17.159Z,123.50
2022-11-22T22:30:43.702Z,128.70
2022-11-22T22:33:10.114Z,118.90
2022-11-22T22:35:36.567Z,116.60
2022-11-22T22:38:03.212Z,115.30
2022-11-22T22:40:29.745Z,129.70
2022-11-22T22:42:58.030Z,112.50
2022-11-22T22:45:24.565Z,125.50
2022-11-22T22:47:51.005Z,134.10
2022-11-22T22:50:17.544Z,150.80
2022-11-22T22:52:43.982Z,174.90
2022-11-22T22:55:10.621Z,156.10
2022-11-22T22:57:37.168Z,169.10
2022-11-22T23:00:04.733Z,159.10
2022-11-22T23:02:31.197Z,156.70
2022-11-22T23:04:57.683Z,123.20
2022-11-22T23:07:24.158Z,100.50
2022-11-22T23:09:50.670Z,93.20
2022-11-22T23:12:17.066Z,92.20
2022-11-22T23:14:43.532Z,90.30
2022-11-22T23:17:10.111Z,87.40
2022-11-22T23:19:36.655Z,81.40
2022-11-22T23:22:04.193Z,99.80
2022-11-22T23:24:32.286Z,104.50
2022-11-22T23:26:59.138Z,119.50
2022-11-22T23:29:26.100Z,128.20
2022-11-22T23:31:52.553Z,127.10
2022-11-22T23:34:19.012Z,129.10
2022-11-22T23:36:45.519Z,140.10
2022-11-22T23:39:12.162Z,135.00
2022-11-22T23:41:38.632Z,139.60
2022-11-22T23:44:05.301Z,144.10
2022-11-22T23:46:31.893Z,137.80
2022-11-22T23:49:00.554Z,160.20
2022-11-22T23:51:28.707Z,179.40
2022-11-22T23:55:48.772Z,169.90
2022-11-22T23:58:15.306Z,169.00
